Time;durP1;ratioP1;P1;durP2;ratioP2;P2;SDS_P1;SDS_P2;PMS_P1;PMS_P2;Temp;Humidity;BMP_temperature;BMP_pressure;BME280_temperature;BME280_humidity;BME280_pressure;Samples;Min_cycle;Max_cycle;Signal;HPM_P1;HPM_P2
2022/07/01 00:00:20;;;;;;;16.98;5.30;;;;;;;26.12;59.15;99934.91;6210150;23;20016;-63
2022/07/01 00:02:46;;;;;;;16.45;5.15;;;;;;;26.08;59.60;99937.31;6209826;23;20009;-73
2022/07/01 00:05:11;;;;;;;13.95;5.00;;;;;;;25.94;59.73;99922.13;6210496;23;20028;-73
2022/07/01 00:07:37;;;;;;;14.10;4.70;;;;;;;25.98;59.95;99939.00;6210611;23;20083;-71
2022/07/01 00:10:04;;;;;;;12.68;4.93;;;;;;;25.95;60.19;99939.44;6210024;23;20507;-72
2022/07/01 00:12:29;;;;;;;14.93;5.45;;;;;;;25.90;60.44;99929.22;6210445;23;20496;-71
2022/07/01 00:14:55;;;;;;;13.88;5.22;;;;;;;25.86;60.66;99928.00;6210382;23;20004;-73
2022/07/01 00:17:21;;;;;;;18.58;5.65;;;;;;;25.75;60.92;99914.28;6210420;23;20094;-72
2022/07/01 00:19:48;;;;;;;12.02;4.80;;;;;;;25.80;61.29;99936.41;6210430;23;20000;-72
2022/07/01 00:22:14;;;;;;;11.40;5.00;;;;;;;25.78;61.62;99936.63;6208703;23;20493;-72
2022/07/01 00:24:39;;;;;;;18.33;6.22;;;;;;;25.76;61.65;99936.03;6210756;23;20087;-72
2022/07/01 00:27:05;;;;;;;18.80;5.13;;;;;;;25.72;62.22;99937.59;6210206;23;20000;-73
2022/07/01 00:29:32;;;;;;;11.02;4.97;;;;;;;25.62;62.44;99918.16;6183688;23;20262;-74
2022/07/01 00:31:58;;;;;;;9.98;4.35;;;;;;;25.68;62.91;99936.44;6209950;23;20004;-72
2022/07/01 00:34:23;;;;;;;16.25;5.30;;;;;;;25.73;62.89;99947.50;6208593;23;20012;-72
2022/07/01 00:36:49;;;;;;;18.25;4.65;;;;;;;25.70;63.16;99944.44;6210404;23;20032;-72
2022/07/01 00:39:14;;;;;;;15.77;5.55;;;;;;;25.64;63.55;99937.16;6210168;23;20008;-72
2022/07/01 00:41:40;;;;;;;11.02;4.82;;;;;;;25.66;63.44;99937.75;6210303;23;20410;-73
2022/07/01 00:44:05;;;;;;;19.85;6.15;;;;;;;25.60;63.86;99938.72;6210224;23;20012;-73
2022/07/01 00:46:32;;;;;;;14.20;5.50;;;;;;;25.64;63.99;99948.97;6210227;23;20005;-73
2022/07/01 00:49:00;;;;;;;13.75;4.45;;;;;;;25.61;64.16;99941.22;6210090;23;20418;-73
2022/07/01 00:51:25;;;;;;;12.55;5.45;;;;;;;25.56;64.25;99934.75;6210086;23;19996;-72
2022/07/01 00:53:51;;;;;;;9.75;4.65;;;;;;;25.57;64.53;99944.69;6209960;23;20007;-72
2022/07/01 00:56:18;;;;;;;16.25;5.30;;;;;;;25.56;64.59;99949.34;6183422;23;20005;-72
2022/07/01 00:58:43;;;;;;;14.48;5.00;;;;;;;25.49;64.90;99939.53;6178262;23;20048;-72
2022/07/01 01:01:09;;;;;;;17.52;4.97;;;;;;;25.48;65.38;99944.22;6179535;23;20028;-72
2022/07/01 01:03:34;;;;;;;10.25;4.80;;;;;;;25.50;65.55;99953.03;6179993;23;20001;-73
2022/07/01 01:06:00;;;;;;;17.40;5.30;;;;;;;25.49;65.91;99942.28;6179823;23;20005;-73
2022/07/01 01:08:26;;;;;;;11.07;4.35;;;;;;;25.47;66.19;99944.47;6180047;23;20334;-73
2022/07/01 01:10:53;;;;;;;14.32;5.38;;;;;;;25.42;66.52;99936.09;6178064;23;20017;-74
2022/07/01 01:13:18;;;;;;;15.95;5.43;;;;;;;25.45;66.17;99943.84;6180203;23;20005;-73
2022/07/01 01:15:44;;;;;;;9.30;4.57;;;;;;;25.28;66.37;99920.91;6181781;23;20016;-73
2022/07/01 01:18:09;;;;;;;13.63;5.50;;;;;;;25.41;66.54;99942.66;6181829;23;20013;-73
2022/07/01 01:20:38;;;;;;;9.52;4.57;;;;;;;25.38;66.67;99937.66;6181981;23;20013;-73
2022/07/01 01:23:07;;;;;;;12.70;4.43;;;;;;;25.30;66.82;99936.06;6181653;23;20016;-72
2022/07/01 01:25:33;;;;;;;10.13;5.20;;;;;;;25.31;67.24;99932.25;6182059;23;20027;-72
2022/07/01 01:28:00;;;;;;;12.07;5.03;;;;;;;25.29;68.19;99934.41;6181680;23;20125;-72
2022/07/01 01:30:26;;;;;;;11.80;5.45;;;;;;;25.22;68.46;99936.44;6205120;23;20021;-73
2022/07/01 01:32:52;;;;;;;13.18;4.93;;;;;;;25.24;68.39;99933.44;6181697;23;20481;-72
2022/07/01 01:35:18;;;;;;;13.73;5.30;;;;;;;25.16;68.67;99934.63;6181698;23;20080;-72
2022/07/01 01:37:44;;;;;;;15.88;5.63;;;;;;;25.18;68.82;99943.44;6182057;23;20028;-73
2022/07/01 01:40:10;;;;;;;11.73;4.85;;;;;;;25.14;69.20;99938.66;6181471;23;20067;-73
2022/07/01 01:42:36;;;;;;;16.83;5.85;;;;;;;25.14;69.54;99945.00;6179771;23;20009;-73
2022/07/01 01:45:02;;;;;;;13.40;5.53;;;;;;;25.11;69.41;99936.44;6181428;23;20005;-72
2022/07/01 01:47:27;;;;;;;13.00;5.60;;;;;;;25.16;69.27;99939.28;6181713;23;20048;-73
2022/07/01 01:49:53;;;;;;;14.05;5.45;;;;;;;25.14;69.25;99935.91;6181669;23;20016;-73
2022/07/01 01:52:18;;;;;;;12.48;5.30;;;;;;;25.12;69.44;99938.09;6180180;23;20001;-73
2022/07/01 01:54:44;;;;;;;17.23;6.20;;;;;;;25.04;69.20;99920.06;6181935;23;20001;-73
2022/07/01 01:57:09;;;;;;;14.23;5.60;;;;;;;25.05;69.32;99929.13;6190483;23;20016;-72
2022/07/01 01:59:35;;;;;;;12.32;5.00;;;;;;;25.04;69.34;99936.53;6211394;23;20051;-72
2022/07/01 02:02:00;;;;;;;17.65;5.07;;;;;;;25.00;69.60;99939.97;6211394;23;20062;-73
2022/07/01 02:04:26;;;;;;;19.73;5.32;;;;;;;24.91;69.91;99938.66;6211454;23;20080;-73
2022/07/01 02:06:52;;;;;;;11.90;5.97;;;;;;;24.88;70.17;99950.94;6211326;23;20456;-73
2022/07/01 02:09:17;;;;;;;12.52;5.40;;;;;;;24.88;70.65;99952.84;6184477;23;20464;-72
2022/07/01 02:11:43;;;;;;;18.05;5.60;;;;;;;24.77;70.81;99951.75;6211409;23;20009;-72
2022/07/01 02:14:08;;;;;;;14.13;5.95;;;;;;;24.66;71.67;99947.06;6211094;23;20435;-73
2022/07/01 02:16:34;;;;;;;12.93;5.35;;;;;;;24.73;72.18;99971.66;6211372;23;20008;-72
2022/07/01 02:18:59;;;;;;;14.00;5.28;;;;;;;24.67;72.45;99959.72;6184286;23;20487;-73
2022/07/01 02:21:25;;;;;;;15.80;6.18;;;;;;;24.63;72.88;99965.88;6211325;23;20016;-73
2022/07/01 02:23:52;;;;;;;12.95;5.95;;;;;;;24.64;73.54;99968.41;6211043;23;20016;-73
2022/07/01 02:26:18;;;;;;;12.35;5.80;;;;;;;24.64;73.84;99965.69;6211189;23;20012;-73
2022/07/01 02:28:44;;;;;;;14.70;5.72;;;;;;;24.58;73.52;99961.09;6211310;23;20004;-72
2022/07/01 02:31:09;;;;;;;19.55;6.22;;;;;;;24.64;73.20;99978.56;6210874;23;20003;-72
2022/07/01 02:33:35;;;;;;;10.40;5.43;;;;;;;24.57;73.21;99967.66;6211064;23;20016;-72
2022/07/01 02:36:00;;;;;;;10.45;5.22;;;;;;;24.60;73.00;99977.31;6211144;23;20008;-73
2022/07/01 02:38:26;;;;;;;15.95;6.43;;;;;;;24.52;72.91;99969.41;6211301;23;20059;-73
2022/07/01 02:40:51;;;;;;;10.55;5.70;;;;;;;24.55;73.68;99979.91;6210711;23;20009;-73
2022/07/01 02:43:18;;;;;;;11.02;5.50;;;;;;;24.54;74.45;99972.75;6210205;23;20008;-72
2022/07/01 02:45:43;;;;;;;12.70;5.80;;;;;;;24.53;74.74;99973.84;6211181;23;20008;-73
2022/07/01 02:48:09;;;;;;;15.38;5.78;;;;;;;24.50;74.63;99977.84;6210792;23;20434;-71
2022/07/01 02:50:34;;;;;;;12.85;6.07;;;;;;;24.50;74.93;99982.53;6209616;23;20023;-72
2022/07/01 02:53:00;;;;;;;22.88;6.82;;;;;;;24.42;75.20;99972.72;6210843;23;20005;-73
2022/07/01 02:55:25;;;;;;;17.80;6.70;;;;;;;24.39;75.62;99965.81;6211094;23;20001;-73
2022/07/01 02:57:51;;;;;;;13.10;6.38;;;;;;;24.42;75.52;99969.97;6210799;23;20012;-73
2022/07/01 03:00:18;;;;;;;27.30;7.03;;;;;;;24.45;75.19;99981.28;6211034;23;20012;-73
2022/07/01 03:02:44;;;;;;;52.28;9.10;;;;;;;24.42;75.08;99981.78;6210574;23;20000;-73
2022/07/01 03:05:10;;;;;;;58.63;9.30;;;;;;;24.40;75.20;99978.44;6210520;23;20016;-72
2022/07/01 03:07:36;;;;;;;29.98;7.22;;;;;;;24.39;75.11;99974.03;6210667;23;20023;-72
2022/07/01 03:10:04;;;;;;;29.63;6.70;;;;;;;24.48;75.04;99991.81;6210344;23;20012;-72
2022/07/01 03:12:34;;;;;;;17.65;6.35;;;;;;;24.49;74.70;99992.66;6210910;23;20062;-72
2022/07/01 03:15:20;;;;;;;23.80;7.03;;;;;;;24.45;74.76;99988.72;6208727;23;20031;-73
2022/07/01 03:17:48;;;;;;;16.70;6.45;;;;;;;24.47;74.94;99993.97;6209862;23;20497;-72
2022/07/01 03:20:15;;;;;;;14.52;5.80;;;;;;;24.47;75.05;99999.44;6210955;23;20484;-73
2022/07/01 03:22:43;;;;;;;18.00;6.22;;;;;;;24.47;74.95;99999.44;6183852;23;20044;-73
2022/07/01 03:25:09;;;;;;;13.52;5.97;;;;;;;24.48;74.80;99995.63;6210520;23;20040;-72
2022/07/01 03:27:36;;;;;;;21.77;6.40;;;;;;;24.47;74.68;100000.25;6210712;23;20012;-64
2022/07/01 03:30:04;;;;;;;13.23;6.25;;;;;;;24.45;74.99;99997.75;6210341;23;20350;-63
2022/07/01 03:32:29;;;;;;;18.42;6.70;;;;;;;24.46;75.17;100009.56;6210524;23;20533;-63
2022/07/01 03:34:55;;;;;;;13.52;5.70;;;;;;;24.50;75.40;100009.94;6210386;23;20091;-65
2022/07/01 03:37:21;;;;;;;15.90;6.30;;;;;;;24.53;75.44;100009.50;6208466;23;20008;-63
2022/07/01 03:39:48;;;;;;;16.70;6.05;;;;;;;24.56;75.38;100009.84;6183999;23;20501;-64
2022/07/01 03:42:14;;;;;;;20.02;6.50;;;;;;;24.61;75.28;100011.91;6210518;23;20092;-62
2022/07/01 03:44:39;;;;;;;21.95;6.53;;;;;;;24.67;75.65;100016.47;6210394;23;20004;-73
2022/07/01 03:47:05;;;;;;;25.02;6.72;;;;;;;24.67;75.67;100005.50;6174853;23;20008;-72
2022/07/01 03:49:32;;;;;;;27.10;7.05;;;;;;;24.73;75.35;100008.16;6210226;23;20011;-67
2022/07/01 03:51:58;;;;;;;31.38;8.05;;;;;;;24.82;74.78;100016.91;6210104;23;20517;-68
2022/07/01 03:54:29;;;;;;;31.02;7.20;;;;;;;24.94;74.80;100028.72;6210151;23;20049;-67
2022/07/01 03:57:09;;;;;;;24.88;7.00;;;;;;;25.01;74.50;100029.47;6209954;23;20017;-67
2022/07/01 03:59:36;;;;;;;28.27;7.13;;;;;;;25.10;74.51;100028.91;6210211;23;20012;-67
2022/07/01 04:02:04;;;;;;;23.90;6.70;;;;;;;25.17;74.57;100029.63;6210130;23;20004;-67
2022/07/01 04:04:29;;;;;;;29.70;7.00;;;;;;;25.20;74.54;100015.44;6206102;23;20007;-68
2022/07/01 04:06:57;;;;;;;15.07;7.65;;;;;;;25.35;74.16;100034.22;6209652;23;20000;-67
2022/07/01 04:09:23;;;;;;;14.68;7.50;;;;;;;25.44;74.50;100043.81;6210173;23;20255;-68
2022/07/01 04:11:49;;;;;;;17.02;7.68;;;;;;;25.57;74.55;100038.91;6183362;23;20485;-68
2022/07/01 04:14:15;;;;;;;21.55;6.95;;;;;;;25.70;73.85;100037.84;6209747;23;20307;-67
2022/07/01 04:16:41;;;;;;;19.55;7.70;;;;;;;25.89;73.54;100047.63;6209187;23;20005;-67
2022/07/01 04:19:09;;;;;;;18.63;6.57;;;;;;;26.03;72.75;100044.44;6209558;23;20091;-67
2022/07/01 04:24:19;;;;;;;19.20;6.68;;;;;;;26.36;70.76;100035.50;6209672;23;20070;-67
2022/07/01 04:26:44;;;;;;;14.55;6.15;;;;;;;26.45;70.27;100031.28;6209316;23;20421;-67
2022/07/01 04:29:10;;;;;;;15.93;6.57;;;;;;;26.63;70.16;100028.34;6209970;23;20005;-68
2022/07/01 04:31:39;;;;;;;13.55;6.38;;;;;;;26.79;69.63;100038.59;6209789;23;20005;-68
2022/07/01 04:34:06;;;;;;;15.30;6.70;;;;;;;26.93;69.15;100042.72;6183243;23;20008;-67
2022/07/01 04:36:32;;;;;;;14.30;6.05;;;;;;;27.08;68.59;100039.41;6210022;23;20055;-67
2022/07/01 04:38:58;;;;;;;11.85;6.13;;;;;;;27.16;67.26;100025.22;6209726;23;20333;-66
2022/07/01 04:44:08;;;;;;;17.23;6.82;;;;;;;27.55;66.15;100049.91;6209641;23;20020;-67
2022/07/01 04:46:33;;;;;;;24.50;7.57;;;;;;;27.70;67.16;100039.09;6209951;23;20011;-68
2022/07/01 04:48:59;;;;;;;23.77;7.75;;;;;;;27.77;67.25;100047.19;6210456;23;20004;-73
2022/07/01 04:51:24;;;;;;;19.00;6.93;;;;;;;27.72;67.55;100047.97;6212199;23;20000;-73
2022/07/01 04:53:50;;;;;;;18.30;6.93;;;;;;;27.68;68.32;100045.94;6212253;23;20040;-72
2022/07/01 04:56:16;;;;;;;21.70;7.10;;;;;;;27.66;67.86;100046.19;6212067;23;20032;-72
2022/07/01 04:58:41;;;;;;;21.85;7.00;;;;;;;27.61;68.30;100042.53;6212438;23;20020;-72
2022/07/01 05:01:07;;;;;;;22.88;7.13;;;;;;;27.63;68.52;100054.16;6211886;23;20069;-73
2022/07/01 05:03:32;;;;;;;17.58;7.57;;;;;;;27.59;69.26;100045.53;6210354;23;20460;-73
2022/07/01 05:05:58;;;;;;;25.05;7.43;;;;;;;27.62;70.21;100052.47;6212031;23;20517;-72
2022/07/01 05:08:23;;;;;;;23.15;7.80;;;;;;;27.59;70.22;100059.31;6211931;23;20487;-72
2022/07/01 05:10:49;;;;;;;26.80;7.03;;;;;;;27.57;69.56;100060.66;6212055;23;20023;-73
2022/07/01 05:13:14;;;;;;;31.67;8.80;;;;;;;27.55;70.05;100062.81;6212032;23;20107;-72
2022/07/01 05:15:40;;;;;;;23.00;7.40;;;;;;;27.54;70.04;100061.16;6211933;23;20063;-72
2022/07/01 05:23:35;;;;;;;17.98;7.68;;;;;;;27.85;69.13;100057.81;6210218;23;20027;-73
2022/07/01 05:26:01;;;;;;;17.45;8.18;;;;;;;28.02;66.78;100058.66;6211769;23;20004;-73
2022/07/01 05:28:27;;;;;;;17.90;7.28;;;;;;;28.20;65.60;100067.44;6211982;23;20819;-73
2022/07/01 05:30:52;;;;;;;11.48;6.15;;;;;;;28.35;64.23;100059.38;6211832;23;20008;-72
2022/07/01 05:33:19;;;;;;;10.85;6.25;;;;;;;28.66;63.06;100077.16;6184749;23;20009;-72
2022/07/01 05:35:44;;;;;;;21.65;7.30;;;;;;;28.84;61.89;100068.56;6211767;23;20054;-72
2022/07/01 05:38:10;;;;;;;23.23;8.43;;;;;;;29.04;60.53;100060.50;6211444;23;20516;-73
2022/07/01 05:40:35;;;;;;;21.17;8.02;;;;;;;29.30;59.88;100067.13;6184771;23;20087;-73
2022/07/01 05:43:00;;;;;;;35.38;8.98;;;;;;;29.46;58.58;100077.19;6211547;23;20020;-73
2022/07/01 05:45:26;;;;;;;21.95;8.43;;;;;;;29.59;57.90;100074.84;6209314;23;20058;-73
2022/07/01 05:47:51;;;;;;;23.15;8.13;;;;;;;29.73;57.09;100081.59;6211121;23;20004;-73
2022/07/01 05:50:17;;;;;;;22.95;8.23;;;;;;;29.86;56.32;100092.22;6211316;23;20316;-72
2022/07/01 05:52:44;;;;;;;15.93;6.65;;;;;;;30.00;56.21;100089.84;6211780;23;20314;-74
2022/07/01 05:55:10;;;;;;;18.17;7.38;;;;;;;30.11;55.89;100086.06;6211464;23;20092;-71
2022/07/01 05:57:36;;;;;;;31.35;8.82;;;;;;;30.24;55.13;100091.13;6211192;23;20413;-72
2022/07/01 06:00:04;;;;;;;32.35;8.73;;;;;;;30.42;54.53;100087.91;6210305;23;20008;-71
2022/07/01 06:02:29;;;;;;;27.13;7.70;;;;;;;30.55;54.11;100076.31;6211385;23;20515;-72
2022/07/01 06:04:55;;;;;;;19.98;7.18;;;;;;;30.73;53.10;100092.50;6211171;23;20004;-73
2022/07/01 06:07:20;;;;;;;21.15;7.35;;;;;;;30.78;53.01;100097.25;6211497;23;20083;-73
2022/07/01 06:09:46;;;;;;;18.88;6.93;;;;;;;30.84;52.26;100080.34;6211631;23;20005;-72
2022/07/01 06:12:11;;;;;;;19.90;6.82;;;;;;;30.97;51.87;100090.91;6211136;23;20009;-73
2022/07/01 06:14:37;;;;;;;17.42;7.05;;;;;;;31.10;51.62;100098.69;6211519;23;20425;-72
2022/07/01 06:17:04;;;;;;;21.65;7.25;;;;;;;31.22;51.31;100085.44;6211111;23;20004;-72
2022/07/01 06:19:29;;;;;;;26.15;7.28;;;;;;;31.28;50.70;100084.38;6184549;23;20004;-72
2022/07/01 06:21:56;;;;;;;22.98;7.03;;;;;;;31.48;50.31;100094.63;6211100;23;20009;-73
2022/07/01 06:24:22;;;;;;;21.63;7.40;;;;;;;31.60;49.87;100090.47;6185182;23;20504;-72
2022/07/01 06:26:48;;;;;;;16.15;6.47;;;;;;;31.70;49.23;100087.72;6185198;23;20008;-72
2022/07/01 06:29:13;;;;;;;18.80;6.97;;;;;;;31.90;48.89;100084.94;6211391;23;20007;-73
2022/07/01 06:31:39;;;;;;;18.70;7.25;;;;;;;32.07;48.38;100081.84;6211281;23;20452;-73
2022/07/01 06:34:04;;;;;;;15.40;6.72;;;;;;;32.16;47.35;100069.06;6211063;23;20011;-73
2022/07/01 06:36:30;;;;;;;12.32;6.35;;;;;;;32.41;46.26;100088.47;6210830;23;20183;-73
2022/07/01 06:38:55;;;;;;;12.75;6.30;;;;;;;32.59;45.52;100082.28;6184206;23;20510;-73
2022/07/01 06:41:27;;;;;;;12.20;6.30;;;;;;;32.70;45.48;100078.34;6210839;23;20016;-72
2022/07/01 06:43:59;;;;;;;15.55;6.53;;;;;;;32.79;45.19;100073.03;6211108;23;20004;-73
2022/07/01 06:46:26;;;;;;;15.27;6.32;;;;;;;33.00;44.97;100089.34;6211069;23;20011;-73
2022/07/01 06:48:51;;;;;;;19.63;6.93;;;;;;;33.17;44.68;100089.78;6211123;23;20055;-73
2022/07/01 06:51:17;;;;;;;10.48;5.80;;;;;;;33.32;44.45;100088.84;6208983;23;20009;-73
2022/07/01 06:53:44;;;;;;;11.60;5.88;;;;;;;33.47;44.39;100088.78;6209231;23;20040;-73
2022/07/01 06:56:11;;;;;;;12.40;6.05;;;;;;;33.64;43.79;100091.97;6210887;23;20091;-72
2022/07/01 06:58:37;;;;;;;13.40;6.00;;;;;;;33.82;43.18;100097.66;6210917;23;20414;-73
2022/07/01 07:01:03;;;;;;;12.80;5.78;;;;;;;33.96;43.13;100087.53;6210507;23;20012;-73
2022/07/01 07:03:29;;;;;;;9.50;5.38;;;;;;;34.16;42.70;100092.06;6210665;23;20602;-72
2022/07/01 07:05:55;;;;;;;11.23;5.68;;;;;;;34.27;41.68;100090.84;6210521;23;20064;-73
2022/07/01 07:08:20;;;;;;;8.38;5.82;;;;;;;34.38;41.77;100093.25;6210674;23;20005;-72
2022/07/01 07:10:46;;;;;;;7.60;5.32;;;;;;;34.53;41.11;100087.47;6183993;23;20016;-72
2022/07/01 07:13:11;;;;;;;11.07;5.70;;;;;;;34.60;41.35;100092.72;6210337;23;20414;-73
2022/07/01 07:15:41;;;;;;;7.13;5.15;;;;;;;34.78;40.78;100091.91;6210774;23;20005;-72
2022/07/01 07:18:07;;;;;;;10.02;5.88;;;;;;;34.93;40.48;100091.75;6210525;23;20000;-73
2022/07/01 07:20:34;;;;;;;12.35;5.43;;;;;;;35.04;39.78;100086.88;6210850;23;20333;-72
2022/07/01 07:23:00;;;;;;;7.82;5.18;;;;;;;35.12;39.53;100084.22;6183705;23;20484;-73
2022/07/01 07:25:26;;;;;;;10.68;5.55;;;;;;;35.18;39.73;100084.97;6210661;23;20008;-72
2022/07/01 07:27:51;;;;;;;12.45;5.63;;;;;;;35.23;39.70;100085.72;6210413;23;20010;-72
2022/07/01 07:30:17;;;;;;;11.07;5.55;;;;;;;35.36;39.56;100089.75;6210360;23;20817;-73
2022/07/01 07:32:44;;;;;;;14.43;6.00;;;;;;;35.46;39.08;100096.00;6210652;23;20003;-73
2022/07/01 07:35:10;;;;;;;10.52;5.55;;;;;;;35.50;39.08;100091.50;6210203;23;20035;-73
2022/07/01 07:37:35;;;;;;;14.07;6.00;;;;;;;35.51;38.70;100087.56;6183770;23;20013;-73
2022/07/01 07:40:03;;;;;;;14.73;6.10;;;;;;;35.52;38.71;100085.59;6205368;23;20005;-64
2022/07/01 07:42:29;;;;;;;8.18;5.63;;;;;;;35.52;39.10;100089.19;6210224;23;20087;-65
2022/07/01 07:44:55;;;;;;;10.13;5.75;;;;;;;35.62;39.10;100091.81;6210155;23;20035;-63
2022/07/01 07:47:20;;;;;;;6.95;5.47;;;;;;;35.69;38.56;100094.25;6184004;23;20412;-64
2022/07/01 07:49:46;;;;;;;10.38;5.95;;;;;;;35.77;38.48;100094.38;6210560;23;20582;-73
2022/07/01 07:52:11;;;;;;;9.38;5.45;;;;;;;35.89;38.05;100093.91;6209675;23;20083;-73
2022/07/01 07:54:38;;;;;;;11.45;5.93;;;;;;;35.84;37.82;100080.88;6210556;23;20005;-73
2022/07/01 07:57:04;;;;;;;11.80;5.38;;;;;;;35.89;38.07;100093.91;6209846;23;20381;-72
2022/07/01 07:59:30;;;;;;;11.13;5.30;;;;;;;35.80;37.84;100101.31;6210782;23;20082;-72
2022/07/01 08:01:55;;;;;;;11.85;6.25;;;;;;;35.76;38.07;100097.47;6210428;23;20012;-72
2022/07/01 08:04:21;;;;;;;12.38;5.88;;;;;;;35.80;38.16;100095.75;6210429;23;20004;-73
2022/07/01 08:06:47;;;;;;;7.28;5.45;;;;;;;35.85;37.85;100085.31;6210406;23;20000;-73
2022/07/01 08:09:12;;;;;;;12.57;5.50;;;;;;;35.95;37.77;100087.91;6183669;23;20087;-73
2022/07/01 08:11:38;;;;;;;8.80;4.85;;;;;;;36.05;37.66;100087.75;6208913;23;20031;-73
2022/07/01 08:14:03;;;;;;;11.95;5.40;;;;;;;36.20;37.83;100090.25;6210344;23;20001;-73
2022/07/01 08:16:29;;;;;;;10.93;5.22;;;;;;;36.35;37.24;100084.41;6209923;23;20001;-73
2022/07/01 08:18:55;;;;;;;12.20;5.18;;;;;;;36.43;36.13;100091.25;6210085;23;19997;-72
2022/07/01 08:21:21;;;;;;;7.95;5.40;;;;;;;36.46;36.76;100090.63;6209599;23;20160;-72
2022/07/01 08:23:46;;;;;;;11.85;6.13;;;;;;;36.43;36.94;100097.66;6209221;23;20061;-75
2022/07/01 08:26:14;;;;;;;10.13;5.32;;;;;;;36.43;36.75;100072.50;6209093;23;20004;-73
2022/07/01 08:28:39;;;;;;;11.82;4.90;;;;;;;36.42;36.54;100096.00;6209518;23;20005;-73
2022/07/01 08:31:04;;;;;;;5.70;4.60;;;;;;;36.38;36.03;100078.19;6208895;23;20091;-74
2022/07/01 08:33:30;;;;;;;12.00;5.35;;;;;;;36.44;36.25;100082.56;6209395;23;20008;-73
2022/07/01 08:35:56;;;;;;;10.73;4.82;;;;;;;36.47;36.63;100084.69;6209532;23;20080;-74
2022/07/01 08:38:21;;;;;;;9.43;5.22;;;;;;;36.52;36.27;100089.38;6209201;23;20009;-73
2022/07/01 08:40:46;;;;;;;11.10;5.57;;;;;;;36.41;36.25;100058.03;6209273;23;20009;-73
2022/07/01 08:43:13;;;;;;;14.48;5.95;;;;;;;36.56;36.46;100085.63;6209077;23;20015;-73
2022/07/01 08:45:39;;;;;;;11.10;4.93;;;;;;;36.64;36.05;100086.88;6209120;23;20015;-73
2022/07/01 08:48:05;;;;;;;9.43;5.28;;;;;;;36.72;35.16;100072.19;6207338;23;20426;-73
2022/07/01 08:50:37;;;;;;;8.27;5.53;;;;;;;36.80;34.60;100067.84;6208078;23;20090;-74
2022/07/01 08:53:03;;;;;;;13.05;5.05;;;;;;;36.92;34.65;100073.72;6181944;23;20001;-73
2022/07/01 08:55:29;;;;;;;12.23;5.82;;;;;;;37.01;34.58;100071.84;6182553;23;20016;-73
2022/07/01 08:57:55;;;;;;;11.75;5.88;;;;;;;37.12;34.37;100074.09;6209355;23;20461;-73
2022/07/01 09:00:20;;;;;;;9.88;5.10;;;;;;;37.22;34.50;100075.84;6181975;23;20028;-74
2022/07/01 09:03:01;;;;;;;12.70;5.55;;;;;;;37.16;34.54;100079.88;6209240;23;20016;-74
2022/07/01 09:05:28;;;;;;;13.40;5.28;;;;;;;37.19;34.33;100077.31;6209224;23;20005;-73
2022/07/01 09:08:05;;;;;;;17.60;5.28;;;;;;;37.21;34.23;100063.84;6210444;23;20004;-73
2022/07/01 09:10:35;;;;;;;9.18;4.93;;;;;;;37.27;34.21;100076.59;6209724;23;20008;-73
2022/07/01 09:13:07;;;;;;;13.40;5.18;;;;;;;37.31;34.00;100073.97;6182863;23;20005;-73
2022/07/01 09:15:33;;;;;;;12.57;5.53;;;;;;;37.35;33.63;100077.78;6209828;23;20008;-73
2022/07/01 09:18:11;;;;;;;8.48;4.60;;;;;;;37.39;33.81;100081.63;6209579;23;20007;-74
2022/07/01 09:20:39;;;;;;;10.90;4.55;;;;;;;37.36;32.60;100068.25;6209796;23;20076;-73
2022/07/01 09:23:10;;;;;;;9.20;3.85;;;;;;;37.40;32.13;100072.06;6209356;23;20051;-73
2022/07/01 09:25:45;;;;;;;11.25;4.32;;;;;;;37.53;31.69;100071.19;6209830;23;20005;-74
2022/07/01 09:28:15;;;;;;;12.15;4.85;;;;;;;37.55;31.33;100072.50;6209688;23;20011;-73
2022/07/01 09:30:43;;;;;;;9.85;4.35;;;;;;;37.57;31.70;100063.78;6209846;23;20012;-73
2022/07/01 09:33:12;;;;;;;9.48;3.97;;;;;;;37.64;31.53;100064.19;6182831;23;20012;-74
2022/07/01 09:35:38;;;;;;;5.80;3.85;;;;;;;37.73;31.51;100062.28;6210843;23;20005;-73
2022/07/01 09:38:05;;;;;;;11.32;4.13;;;;;;;37.74;31.43;100052.72;6211405;23;20012;-72
2022/07/01 09:40:50;;;;;;;10.18;4.75;;;;;;;37.76;31.67;100053.25;6211606;23;20004;-73
2022/07/01 09:43:24;;;;;;;12.93;4.75;;;;;;;37.79;31.41;100050.66;6211254;23;20019;-73
2022/07/01 09:46:02;;;;;;;7.18;4.40;;;;;;;37.84;31.65;100053.31;6211471;23;20001;-74
2022/07/01 09:48:33;;;;;;;10.63;4.53;;;;;;;37.90;31.47;100049.22;6211395;23;20012;-73
2022/07/01 09:50:59;;;;;;;9.43;4.40;;;;;;;37.94;31.27;100041.03;6211303;23;20385;-74
2022/07/01 09:53:25;;;;;;;11.45;4.78;;;;;;;38.06;31.58;100044.03;6211582;23;20005;-73
2022/07/01 09:55:51;;;;;;;14.20;4.10;;;;;;;38.15;31.01;100045.75;6211491;23;20008;-74
2022/07/01 09:58:17;;;;;;;10.07;4.25;;;;;;;38.19;30.91;100031.91;6179426;23;20024;-73
2022/07/01 10:00:43;;;;;;;11.82;4.25;;;;;;;38.31;31.05;100032.13;6181195;23;20339;-73
2022/07/01 10:03:09;;;;;;;9.57;4.40;;;;;;;38.38;31.16;100035.28;6181114;23;20438;-73
2022/07/01 10:05:47;;;;;;;11.90;4.22;;;;;;;38.40;30.46;100027.41;6181434;23;20362;-73
2022/07/01 10:08:28;;;;;;;9.10;3.97;;;;;;;38.50;30.41;100032.69;6181177;23;20334;-74
2022/07/01 10:11:34;;;;;;;9.68;4.43;;;;;;;38.48;30.34;100029.38;6179937;23;20071;-72
2022/07/01 10:14:04;;;;;;;14.45;3.95;;;;;;;38.33;30.45;100022.25;6179581;23;20047;-72
2022/07/01 10:16:31;;;;;;;10.63;4.22;;;;;;;38.35;30.92;100024.72;6179416;23;20005;-73
2022/07/01 10:18:57;;;;;;;9.43;4.38;;;;;;;38.36;30.61;100020.75;6181470;23;20007;-74
2022/07/01 10:21:30;;;;;;;6.35;4.25;;;;;;;38.27;30.42;100017.94;6180962;23;20079;-74
2022/07/01 10:24:16;;;;;;;8.35;4.32;;;;;;;38.28;30.26;100029.97;6181395;23;20684;-73
2022/07/01 10:26:42;;;;;;;14.50;4.85;;;;;;;38.27;30.80;100017.94;6181441;23;20004;-74
2022/07/01 10:29:32;;;;;;;12.10;4.57;;;;;;;38.25;30.20;100023.06;6181163;23;20020;-73
2022/07/01 10:32:25;;;;;;;8.52;4.45;;;;;;;38.17;30.48;100017.41;6181380;23;19998;-73
2022/07/01 10:35:02;;;;;;;13.73;4.87;;;;;;;38.11;30.60;100013.09;6181419;23;20633;-73
2022/07/01 10:37:27;;;;;;;11.27;4.65;;;;;;;38.14;31.07;100004.06;6181467;23;20088;-73
2022/07/01 10:39:57;;;;;;;10.80;4.85;;;;;;;38.14;30.37;100013.28;6180979;23;20039;-73
2022/07/01 10:42:30;;;;;;;10.75;4.55;;;;;;;38.13;30.71;100005.19;6180639;23;20033;-73
2022/07/01 10:45:13;;;;;;;12.63;5.03;;;;;;;38.08;30.40;100003.38;6181087;23;20037;-74
2022/07/01 10:47:39;;;;;;;13.48;5.47;;;;;;;38.07;31.14;100009.28;6180824;23;20001;-73
2022/07/01 10:50:10;;;;;;;11.88;5.03;;;;;;;38.08;30.83;100003.38;6179143;23;20021;-73
2022/07/01 10:52:36;;;;;;;12.45;4.53;;;;;;;38.06;31.09;99994.44;6179517;23;20001;-73
2022/07/01 10:55:09;;;;;;;9.43;4.40;;;;;;;38.08;30.56;99996.94;6180588;23;20016;-73
2022/07/01 10:57:38;;;;;;;10.63;4.65;;;;;;;38.16;31.02;99994.16;6191979;23;20460;-74
2022/07/01 11:00:03;;;;;;;8.32;4.50;;;;;;;38.21;30.50;99996.00;6210632;23;20075;-73
2022/07/01 11:02:37;;;;;;;15.25;4.95;;;;;;;38.22;30.45;99992.88;6211052;23;20434;-73
2022/07/01 11:05:16;;;;;;;9.30;4.65;;;;;;;38.23;29.93;99983.31;6210541;23;20465;-73
2022/07/01 11:07:45;;;;;;;12.07;4.95;;;;;;;38.27;29.64;99975.91;6210862;23;20066;-73
2022/07/01 11:10:12;;;;;;;8.63;5.00;;;;;;;38.29;29.73;99979.22;6210535;23;20454;-74
2022/07/01 11:12:39;;;;;;;10.20;4.70;;;;;;;38.39;29.61;99980.88;6211037;23;20004;-74
2022/07/01 11:15:06;;;;;;;16.80;5.38;;;;;;;38.45;29.56;99974.78;6210482;23;20012;-74
2022/07/01 11:17:32;;;;;;;13.85;5.25;;;;;;;38.47;28.84;99968.88;6210889;23;20076;-73
2022/07/01 11:20:01;;;;;;;12.93;5.32;;;;;;;38.53;29.62;99965.59;6183961;23;20044;-74
2022/07/01 11:22:28;;;;;;;12.30;4.60;;;;;;;38.53;29.34;99962.00;6210523;23;20012;-74
2022/07/01 11:24:57;;;;;;;12.77;4.95;;;;;;;38.56;28.89;99958.53;6184080;23;20083;-74
2022/07/01 11:27:24;;;;;;;13.10;4.75;;;;;;;38.60;28.92;99970.72;6183740;23;20031;-74
2022/07/01 11:29:55;;;;;;;9.63;5.13;;;;;;;38.56;29.55;99952.09;6210669;23;20000;-73
2022/07/01 11:32:33;;;;;;;6.53;4.50;;;;;;;38.49;29.54;99955.34;6183672;23;20015;-74